Time;durP1;ratioP1;P1;durP2;ratioP2;P2;SDS_P1;SDS_P2;PMS_P1;PMS_P2;Temp;Humidity;BMP_temperature;BMP_pressure;BME280_temperature;BME280_humidity;BME280_pressure;Samples;Min_cycle;Max_cycle;Signal;HPM_P1;HPM_P2
2021/09/13 00:01:15;;;;;;;15.58;8.85;;;;;;;14.19;87.52;100890.08;1873314;76;21039;-68
2021/09/13 00:03:45;;;;;;;17.62;8.05;;;;;;;14.19;87.56;100894.52;1873319;76;21140;-67
2021/09/13 00:06:15;;;;;;;14.25;8.63;;;;;;;14.17;87.47;100894.59;1873187;76;21481;-67
2021/09/13 00:08:43;;;;;;;16.60;8.35;;;;;;;14.15;87.42;100890.33;1873241;76;21090;-67
2021/09/13 00:11:12;;;;;;;14.03;7.95;;;;;;;14.12;87.43;100886.03;1873170;76;21066;-67
2021/09/13 00:13:42;;;;;;;16.35;7.65;;;;;;;14.11;87.47;100881.69;1873182;76;21118;-67
2021/09/13 00:16:12;;;;;;;14.13;7.47;;;;;;;14.10;87.49;100883.92;1873155;76;21168;-67
2021/09/13 00:18:41;;;;;;;14.80;8.90;;;;;;;14.06;87.45;100893.81;1873063;76;21042;-68
2021/09/13 00:21:11;;;;;;;18.77;9.63;;;;;;;14.02;87.36;100894.07;1873165;76;21141;-67
2021/09/13 00:23:40;;;;;;;16.55;8.65;;;;;;;14.00;87.49;100890.61;1873253;76;21137;-66
2021/09/13 00:26:10;;;;;;;17.85;8.33;;;;;;;13.97;87.62;100891.64;1873094;76;21067;-67
2021/09/13 00:28:38;;;;;;;27.45;10.68;;;;;;;13.95;87.72;100894.84;1873162;76;21113;-67
2021/09/13 00:31:08;;;;;;;21.10;11.28;;;;;;;13.95;87.55;100890.02;1873146;76;21074;-68
2021/09/13 00:33:37;;;;;;;22.07;13.13;;;;;;;13.93;87.45;100890.56;1873147;76;21042;-68
2021/09/13 00:36:06;;;;;;;20.85;11.38;;;;;;;13.90;87.39;100893.73;1873196;76;21124;-68
2021/09/13 00:38:36;;;;;;;22.50;12.30;;;;;;;13.86;87.57;100892.66;1873273;76;21046;-68
2021/09/13 00:41:06;;;;;;;25.30;12.45;;;;;;;13.83;87.48;100894.12;1873179;76;21101;-68
2021/09/13 00:43:35;;;;;;;20.92;10.15;;;;;;;13.78;87.41;100890.40;1873470;76;21050;-68
2021/09/13 00:46:05;;;;;;;12.13;7.90;;;;;;;13.75;87.39;100902.45;1873036;76;21627;-68
2021/09/13 00:48:34;;;;;;;16.32;8.73;;;;;;;13.70;87.43;100896.52;1873412;76;21058;-68
2021/09/13 00:51:03;;;;;;;15.30;7.72;;;;;;;13.68;87.40;100895.74;1873357;76;21122;-68
2021/09/13 00:53:32;;;;;;;15.35;7.17;;;;;;;13.66;87.31;100898.46;1873181;76;21144;-68
2021/09/13 00:56:02;;;;;;;14.43;8.10;;;;;;;13.63;87.30;100895.11;1873171;76;21552;-67
2021/09/13 00:58:31;;;;;;;20.00;8.95;;;;;;;13.62;87.69;100889.44;1873125;76;21038;-68
2021/09/13 01:01:00;;;;;;;22.67;10.55;;;;;;;13.63;87.71;100899.08;1873159;76;21547;-67
2021/09/13 01:03:29;;;;;;;21.42;10.70;;;;;;;13.65;87.98;100899.88;1873185;76;21042;-68
2021/09/13 01:05:57;;;;;;;20.00;11.12;;;;;;;13.65;88.26;100902.05;1873134;76;21113;-63
2021/09/13 01:08:27;;;;;;;18.82;9.55;;;;;;;13.67;88.37;100907.28;1873171;76;21062;-68
2021/09/13 01:10:57;;;;;;;16.97;9.40;;;;;;;13.66;88.27;100913.02;1873023;76;21555;-68
2021/09/13 01:13:26;;;;;;;19.32;9.23;;;;;;;13.65;88.26;100906.02;1873072;76;21537;-68
2021/09/13 01:15:55;;;;;;;18.10;9.40;;;;;;;13.63;88.16;100907.02;1873177;76;21535;-68
2021/09/13 01:18:25;;;;;;;22.45;10.18;;;;;;;13.60;88.04;100902.74;1873258;76;21541;-68
2021/09/13 01:20:54;;;;;;;23.52;10.88;;;;;;;13.59;88.06;100900.16;1873260;76;21513;-67
2021/09/13 01:23:32;;;;;;;24.35;9.98;;;;;;;13.59;87.93;100909.42;1873051;76;21070;-67
2021/09/13 01:26:03;;;;;;;22.20;11.95;;;;;;;13.59;87.83;100906.78;1872701;76;21187;-67
2021/09/13 01:28:32;;;;;;;21.05;10.78;;;;;;;13.56;88.07;100906.95;1880285;76;21600;-67
2021/09/13 01:31:02;;;;;;;19.27;9.70;;;;;;;13.53;88.36;100911.06;1882441;76;21505;-67
2021/09/13 01:33:32;;;;;;;31.07;13.15;;;;;;;13.53;88.43;100903.12;1882392;76;21045;-68
2021/09/13 01:36:01;;;;;;;34.00;15.90;;;;;;;13.54;88.62;100910.98;1882312;76;21608;-68
2021/09/13 01:38:32;;;;;;;34.03;14.60;;;;;;;13.57;88.60;100912.61;1882359;76;21112;-68
2021/09/13 01:41:01;;;;;;;40.90;14.60;;;;;;;13.59;88.66;100916.04;1882351;76;21047;-68
2021/09/13 01:43:30;;;;;;;36.40;14.73;;;;;;;13.59;88.71;100913.39;1882287;76;21046;-68
2021/09/13 01:45:59;;;;;;;23.73;11.08;;;;;;;13.63;88.96;100910.98;1882297;76;21063;-68
2021/09/13 01:48:29;;;;;;;44.35;13.25;;;;;;;13.64;89.21;100911.39;1882168;76;21145;-68
2021/09/13 01:50:57;;;;;;;47.10;15.48;;;;;;;13.68;89.38;100912.50;1882272;76;21049;-69
2021/09/13 01:53:28;;;;;;;45.03;12.45;;;;;;;13.67;89.29;100923.16;1882202;76;21105;-68
2021/09/13 01:55:57;;;;;;;29.92;10.35;;;;;;;13.64;89.03;100919.33;1882301;76;21477;-68
2021/09/13 01:58:25;;;;;;;17.17;8.10;;;;;;;13.59;88.88;100914.23;1882355;76;21481;-68
2021/09/13 02:00:54;;;;;;;15.35;8.70;;;;;;;13.55;88.72;100917.12;1882311;76;21140;-69
2021/09/13 02:03:23;;;;;;;18.60;9.60;;;;;;;13.50;88.72;100913.36;1882553;76;21787;-69
2021/09/13 02:05:53;;;;;;;16.60;9.58;;;;;;;13.46;88.96;100914.45;1882385;76;21082;-67
2021/09/13 02:08:24;;;;;;;21.85;9.33;;;;;;;13.41;89.15;100918.66;1882387;76;21110;-65
2021/09/13 02:10:53;;;;;;;17.65;9.38;;;;;;;13.38;88.99;100922.77;1882441;76;21090;-66
2021/09/13 02:13:21;;;;;;;14.47;8.50;;;;;;;13.35;89.06;100924.22;1882368;76;21458;-67
2021/09/13 02:15:50;;;;;;;16.42;9.53;;;;;;;13.34;89.19;100930.45;1882440;76;21050;-66
2021/09/13 02:18:21;;;;;;;18.40;9.15;;;;;;;13.35;89.07;100935.27;1882371;76;21598;-65
2021/09/13 02:20:52;;;;;;;16.90;9.75;;;;;;;13.35;88.96;100932.16;1882073;76;21177;-65
2021/09/13 02:23:21;;;;;;;21.23;9.53;;;;;;;13.35;89.21;100932.16;1882532;76;21488;-64
2021/09/13 02:25:50;;;;;;;22.87;10.15;;;;;;;13.36;89.34;100923.78;1882393;76;21066;-67
2021/09/13 02:28:18;;;;;;;22.25;10.72;;;;;;;13.37;89.34;100927.67;1879341;76;21090;-65
2021/09/13 02:30:47;;;;;;;28.67;10.08;;;;;;;13.37;89.54;100923.71;1873412;76;21109;-65
2021/09/13 02:33:17;;;;;;;34.80;11.22;;;;;;;13.39;89.41;100924.49;1873224;76;21136;-66
2021/09/13 02:35:47;;;;;;;22.05;10.85;;;;;;;13.36;89.45;100921.98;1871745;76;21188;-64
2021/09/13 02:38:17;;;;;;;60.65;36.55;;;;;;;13.37;89.30;100921.51;1905675;75;21523;-63
2021/09/13 02:40:45;;;;;;;111.47;60.95;;;;;;;13.35;89.28;100922.90;1902025;75;21027;-66
2021/09/13 02:43:15;;;;;;;110.25;65.40;;;;;;;13.34;89.25;100925.17;1873089;76;21072;-64
2021/09/13 02:45:45;;;;;;;87.80;47.35;;;;;;;13.34;89.34;100931.78;1931680;73;21129;-63
2021/09/13 02:48:14;;;;;;;23.70;11.28;;;;;;;13.32;89.26;100931.00;1916092;75;21553;-74
2021/09/13 02:50:43;;;;;;;29.20;14.28;;;;;;;13.30;89.12;100937.68;1913825;75;21126;-68
2021/09/13 02:53:12;;;;;;;27.48;13.13;;;;;;;13.28;89.18;100933.38;1881666;76;21011;-66
2021/09/13 02:55:41;;;;;;;26.42;13.15;;;;;;;13.25;89.30;100942.76;1883151;75;21046;-63
2021/09/13 02:58:11;;;;;;;26.23;13.40;;;;;;;13.23;89.31;100938.02;1905594;75;21120;-63
2021/09/13 03:00:40;;;;;;;21.57;12.85;;;;;;;13.24;89.46;100940.59;1905767;75;21034;-64
2021/09/13 03:03:09;;;;;;;15.45;10.20;;;;;;;13.25;89.31;100947.58;1905805;75;21502;-63
2021/09/13 03:05:39;;;;;;;22.90;10.38;;;;;;;13.25;89.26;100946.25;1905734;75;21536;-63
2021/09/13 03:08:12;;;;;;;19.50;10.38;;;;;;;13.28;89.21;100949.23;1905163;75;21083;-64
2021/09/13 03:10:40;;;;;;;24.85;9.50;;;;;;;13.32;89.11;100950.83;1905807;75;21027;-67
2021/09/13 03:13:09;;;;;;;24.15;9.78;;;;;;;13.37;88.97;100956.77;1905746;75;21027;-67
2021/09/13 03:15:38;;;;;;;21.45;10.13;;;;;;;13.41;88.90;100955.69;1905688;75;21055;-68
2021/09/13 03:18:07;;;;;;;20.37;9.93;;;;;;;13.45;88.82;100955.08;1905674;75;21071;-68
2021/09/13 03:20:36;;;;;;;18.80;10.32;;;;;;;13.48;88.76;100951.83;1905849;75;21508;-67
2021/09/13 03:23:06;;;;;;;19.27;10.10;;;;;;;13.53;88.66;100950.73;1905690;75;21086;-66
2021/09/13 03:25:35;;;;;;;22.58;10.70;;;;;;;13.56;88.62;100954.09;1905640;75;21579;-66
2021/09/13 03:28:05;;;;;;;18.67;9.83;;;;;;;13.60;88.54;100954.81;1905822;75;21113;-66
2021/09/13 03:30:35;;;;;;;20.15;10.45;;;;;;;13.65;88.39;100960.74;1914435;75;21152;-67
2021/09/13 03:33:04;;;;;;;18.75;10.93;;;;;;;13.68;88.26;100957.92;1915160;75;21054;-66
2021/09/13 03:35:33;;;;;;;20.82;10.38;;;;;;;13.71;88.25;100960.44;1915153;75;21035;-65
2021/09/13 03:38:03;;;;;;;20.12;9.78;;;;;;;13.73;88.31;100953.27;1915312;75;21031;-66
2021/09/13 03:40:31;;;;;;;20.25;9.50;;;;;;;13.76;88.36;100959.75;1915198;75;21113;-65
2021/09/13 03:43:00;;;;;;;15.10;8.18;;;;;;;13.76;88.48;100960.19;1915193;75;21047;-65
2021/09/13 03:45:31;;;;;;;20.10;8.25;;;;;;;13.77;88.44;100962.77;1915021;75;21186;-66
2021/09/13 03:48:07;;;;;;;19.23;10.00;;;;;;;13.84;88.33;100968.16;1915081;75;21063;-65
2021/09/13 03:50:37;;;;;;;18.42;8.75;;;;;;;13.88;88.24;100963.58;1914772;75;21135;-65
2021/09/13 03:53:06;;;;;;;15.70;8.98;;;;;;;13.90;88.17;100959.91;1915197;75;21050;-65
2021/09/13 03:55:36;;;;;;;18.00;10.68;;;;;;;13.92;88.03;100960.31;1915097;75;21610;-66
2021/09/13 03:58:06;;;;;;;17.10;9.55;;;;;;;13.94;88.04;100963.73;1915217;75;21031;-65
2021/09/13 04:00:36;;;;;;;15.72;6.97;;;;;;;13.99;88.03;100972.31;1915268;75;21042;-65
2021/09/13 04:03:10;;;;;;;18.52;7.60;;;;;;;14.06;87.90;100972.41;1915159;75;21059;-65
2021/09/13 04:05:42;;;;;;;15.80;8.25;;;;;;;14.16;87.79;100974.95;1914968;75;21066;-65
2021/09/13 04:08:43;;;;;;;19.20;8.20;;;;;;;14.24;87.69;100966.17;1914854;74;21035;-65
2021/09/13 04:11:26;;;;;;;19.65;9.08;;;;;;;14.22;87.49;100968.05;1914947;74;21034;-66
2021/09/13 04:13:57;;;;;;;16.77;8.25;;;;;;;14.24;87.38;100968.83;1912654;75;21057;-65
2021/09/13 04:16:28;;;;;;;17.00;8.73;;;;;;;14.29;87.31;100965.48;1914186;75;21058;-69
2021/09/13 04:18:58;;;;;;;15.58;8.00;;;;;;;14.37;87.27;100965.09;1891654;75;21151;-65
2021/09/13 04:21:31;;;;;;;18.45;9.13;;;;;;;14.44;87.25;100972.23;1911411;75;21484;-65
2021/09/13 04:24:02;;;;;;;16.85;8.60;;;;;;;14.51;87.19;100973.63;1911413;75;21074;-65
2021/09/13 04:26:45;;;;;;;14.80;9.08;;;;;;;14.56;87.14;100970.28;1862799;75;21179;-65
2021/09/13 04:29:16;;;;;;;20.05;9.75;;;;;;;14.59;87.11;100970.16;1914912;75;21054;-65
2021/09/13 04:31:47;;;;;;;22.58;9.23;;;;;;;14.65;87.17;100967.18;1908318;75;21524;-66
2021/09/13 04:34:18;;;;;;;21.00;9.58;;;;;;;14.75;87.25;100969.34;1911872;75;21120;-66
2021/09/13 04:37:00;;;;;;;17.70;9.73;;;;;;;14.82;87.22;100972.06;1911699;75;21054;-66
2021/09/13 04:39:47;;;;;;;14.28;8.53;;;;;;;14.89;87.13;100978.76;1915086;75;21062;-65
2021/09/13 04:42:20;;;;;;;16.30;9.08;;;;;;;14.95;86.97;100974.44;1910099;75;21054;-66
2021/09/13 04:44:50;;;;;;;18.55;9.85;;;;;;;14.99;86.86;100974.66;1911657;75;21079;-65
2021/09/13 04:47:21;;;;;;;20.95;11.40;;;;;;;15.06;86.76;100976.05;1912273;75;21504;-65
2021/09/13 04:50:04;;;;;;;21.57;14.43;;;;;;;15.14;86.71;100965.05;1910242;75;21119;-66
2021/09/13 04:52:34;;;;;;;28.20;18.75;;;;;;;15.25;86.60;100965.75;1910093;75;21819;-66
2021/09/13 04:55:04;;;;;;;20.68;11.83;;;;;;;15.36;86.52;100967.82;1915307;75;21030;-66
2021/09/13 04:57:34;;;;;;;17.65;8.73;;;;;;;15.52;86.34;100967.84;1915165;75;21074;-66
2021/09/13 05:00:07;;;;;;;16.02;8.63;;;;;;;15.73;86.12;100967.08;1915081;75;21106;-66
2021/09/13 05:02:38;;;;;;;12.55;7.40;;;;;;;16.04;85.87;100964.88;1914610;75;21039;-66
2021/09/13 05:05:11;;;;;;;13.70;8.48;;;;;;;16.75;85.89;100964.17;1915123;75;21515;-66
2021/09/13 05:07:40;;;;;;;11.93;8.03;;;;;;;17.55;85.53;100963.63;1915169;75;21031;-66
2021/09/13 05:10:10;;;;;;;15.70;7.20;;;;;;;18.42;84.64;100960.13;1915126;75;21038;-66
2021/09/13 05:12:39;;;;;;;13.13;6.97;;;;;;;19.14;83.06;100959.10;1915227;75;21112;-66
2021/09/13 05:15:09;;;;;;;11.95;6.35;;;;;;;19.80;81.74;100954.32;1915002;75;21195;-66
2021/09/13 05:17:38;;;;;;;10.00;6.37;;;;;;;20.29;80.23;100953.78;1915287;75;21100;-66
2021/09/13 05:20:08;;;;;;;14.45;6.60;;;;;;;20.19;80.06;100958.12;1915032;75;21051;-66
2021/09/13 05:22:38;;;;;;;11.85;6.30;;;;;;;19.94;79.45;100951.97;1915211;75;21026;-66
2021/09/13 05:25:09;;;;;;;13.28;5.40;;;;;;;19.80;77.90;100954.81;1915110;75;21405;-65
2021/09/13 05:27:38;;;;;;;11.30;6.30;;;;;;;20.01;76.64;100950.54;1914987;75;21104;-66
2021/09/13 05:30:09;;;;;;;10.58;5.33;;;;;;;20.49;75.84;100950.04;1915020;75;21058;-65
2021/09/13 05:32:38;;;;;;;9.35;5.45;;;;;;;21.10;75.27;100951.95;1915387;75;21042;-65
2021/09/13 05:35:08;;;;;;;11.78;5.87;;;;;;;21.70;74.25;100950.27;1915325;75;21132;-66
2021/09/13 05:37:37;;;;;;;12.00;5.58;;;;;;;22.11;72.06;100948.16;1915355;75;21113;-66
2021/09/13 05:40:08;;;;;;;8.38;6.00;;;;;;;22.40;70.69;100942.16;1915061;75;21063;-66
2021/09/13 05:42:37;;;;;;;10.38;5.25;;;;;;;22.80;70.12;100941.38;1915461;75;21035;-66
2021/09/13 05:45:07;;;;;;;15.10;5.47;;;;;;;23.25;69.16;100940.16;1915213;75;21591;-66
2021/09/13 05:47:37;;;;;;;11.53;5.62;;;;;;;23.55;67.00;100943.75;1884492;75;21023;-66
2021/09/13 05:50:07;;;;;;;12.63;5.40;;;;;;;23.77;65.88;100944.81;1915203;75;21078;-66
2021/09/13 05:52:35;;;;;;;12.58;5.85;;;;;;;23.86;66.08;100943.16;1915145;75;21216;-66
2021/09/13 05:55:06;;;;;;;11.03;5.75;;;;;;;23.58;65.93;100950.20;1915271;75;21117;-66
2021/09/13 05:57:35;;;;;;;17.20;5.78;;;;;;;23.16;66.32;100950.38;1915261;75;21087;-66
2021/09/13 06:00:05;;;;;;;13.78;7.00;;;;;;;22.78;66.86;100954.56;1915245;75;21139;-66
2021/09/13 06:02:36;;;;;;;11.68;6.00;;;;;;;22.40;67.31;100952.88;1913983;75;21606;-66
2021/09/13 06:05:07;;;;;;;13.48;5.70;;;;;;;22.05;67.81;100954.52;1912805;75;21131;-66
2021/09/13 06:07:37;;;;;;;17.55;8.03;;;;;;;21.88;68.22;100958.61;1915426;75;21031;-66
2021/09/13 06:10:09;;;;;;;19.80;7.53;;;;;;;21.85;68.62;100961.05;1914655;75;21058;-66
2021/09/13 06:12:39;;;;;;;14.38;6.55;;;;;;;21.91;68.85;100955.66;1914845;75;21057;-66
2021/09/13 06:15:09;;;;;;;12.18;6.28;;;;;;;22.11;68.92;100953.98;1915351;75;21063;-66
2021/09/13 06:17:40;;;;;;;11.20;6.12;;;;;;;22.62;68.73;100950.55;1914981;75;21513;-67
2021/09/13 06:20:11;;;;;;;12.88;6.70;;;;;;;23.36;68.08;100958.84;1914934;75;21070;-66
2021/09/13 06:22:41;;;;;;;12.23;6.22;;;;;;;24.16;66.80;100951.59;1915408;75;21022;-66
2021/09/13 06:25:12;;;;;;;11.33;5.60;;;;;;;24.92;65.62;100957.44;1914123;75;21183;-66
2021/09/13 06:27:42;;;;;;;9.80;5.25;;;;;;;25.64;64.34;100957.63;1914990;75;21081;-66
2021/09/13 06:30:12;;;;;;;11.28;5.97;;;;;;;26.04;62.11;100968.47;1915058;75;21129;-66
2021/09/13 06:32:47;;;;;;;16.82;6.75;;;;;;;26.47;61.43;100959.22;1906563;75;21062;-66
2021/09/13 06:35:15;;;;;;;15.60;7.30;;;;;;;26.69;58.40;100960.53;1905811;75;21579;-66
2021/09/13 06:37:55;;;;;;;15.10;7.83;;;;;;;26.63;57.38;100961.19;1904827;75;21046;-66
2021/09/13 06:40:25;;;;;;;15.88;7.83;;;;;;;26.80;57.68;100960.29;1905614;75;21140;-67
2021/09/13 06:42:54;;;;;;;17.73;8.70;;;;;;;27.19;57.05;100961.61;1832428;77;21069;-66
2021/09/13 06:45:25;;;;;;;12.10;6.47;;;;;;;27.24;55.92;100957.92;1905739;75;21529;-65
2021/09/13 06:47:54;;;;;;;11.20;5.83;;;;;;;27.54;55.72;100959.24;1905709;75;21473;-66
2021/09/13 06:50:28;;;;;;;13.10;5.28;;;;;;;27.77;55.04;100958.59;1905727;75;21070;-66
2021/09/13 06:52:57;;;;;;;13.08;6.00;;;;;;;28.11;54.30;100950.38;1905579;75;21043;-66
2021/09/13 06:55:27;;;;;;;12.20;5.62;;;;;;;28.55;53.58;100955.91;1905712;75;21478;-66
2021/09/13 06:57:56;;;;;;;9.08;5.33;;;;;;;28.79;51.76;100953.16;1905996;75;21474;-66
2021/09/13 07:00:25;;;;;;;10.53;5.10;;;;;;;28.86;50.94;100954.64;1905696;75;21513;-66
2021/09/13 07:02:54;;;;;;;11.53;5.58;;;;;;;28.98;49.85;100955.97;1905775;75;21043;-66
2021/09/13 07:05:24;;;;;;;9.03;5.03;;;;;;;29.12;49.56;100948.94;1905625;75;21031;-66
2021/09/13 07:07:53;;;;;;;13.75;5.95;;;;;;;29.43;49.40;100950.86;1905771;75;21078;-65
2021/09/13 07:10:22;;;;;;;11.53;5.40;;;;;;;29.76;49.10;100949.32;1905688;75;21031;-66
2021/09/13 07:12:53;;;;;;;8.03;4.53;;;;;;;29.98;47.91;100944.91;1905803;75;21051;-66
2021/09/13 07:15:21;;;;;;;9.45;5.20;;;;;;;30.13;47.36;100945.78;1905634;75;21489;-66
2021/09/13 07:17:51;;;;;;;9.75;5.62;;;;;;;30.50;46.57;100940.55;1905807;75;21128;-66
2021/09/13 07:20:23;;;;;;;15.80;5.97;;;;;;;31.05;46.15;100938.41;1905805;75;21126;-66
2021/09/13 07:22:52;;;;;;;13.60;5.87;;;;;;;31.32;45.05;100943.66;1905770;75;21027;-66
2021/09/13 07:25:21;;;;;;;12.25;5.65;;;;;;;31.44;44.15;100938.02;1905660;75;21055;-66
2021/09/13 07:27:50;;;;;;;9.28;4.40;;;;;;;31.37;43.89;100941.19;1905671;75;21524;-66
2021/09/13 07:30:19;;;;;;;8.80;5.10;;;;;;;31.38;43.89;100934.72;1905654;75;21498;-67
2021/09/13 07:32:48;;;;;;;6.97;3.85;;;;;;;31.45;43.73;100931.56;1911836;75;21611;-66
2021/09/13 07:35:18;;;;;;;6.65;4.00;;;;;;;31.50;42.87;100937.31;1915165;75;21014;-66
2021/09/13 07:37:47;;;;;;;9.25;3.90;;;;;;;31.79;42.57;100932.77;1915142;74;21043;-67
2021/09/13 07:40:16;;;;;;;10.53;4.72;;;;;;;31.87;41.58;100932.64;1915119;75;21533;-67
2021/09/13 07:42:45;;;;;;;5.92;3.83;;;;;;;31.97;41.56;100932.30;1915286;75;21128;-67
2021/09/13 07:45:13;;;;;;;8.18;3.85;;;;;;;32.14;41.15;100932.89;1915103;75;21014;-67
2021/09/13 07:47:42;;;;;;;7.60;4.17;;;;;;;32.10;41.15;100931.60;1915169;75;21054;-66
2021/09/13 07:50:11;;;;;;;8.50;3.65;;;;;;;32.16;40.75;100924.52;1915145;75;21441;-66
2021/09/13 07:52:40;;;;;;;6.87;4.28;;;;;;;32.31;40.79;100924.75;1915162;75;21097;-66
2021/09/13 07:55:10;;;;;;;9.75;4.58;;;;;;;32.45;40.19;100926.20;1915180;75;21132;-66
2021/09/13 07:57:39;;;;;;;10.78;5.33;;;;;;;32.35;39.61;100921.61;1915129;75;21092;-66
2021/09/13 08:00:08;;;;;;;8.48;4.92;;;;;;;32.46;39.62;100919.69;1915231;75;21097;-66
2021/09/13 08:02:39;;;;;;;4.80;3.20;;;;;;;32.27;40.40;100913.91;1911449;75;21091;-66
2021/09/13 08:05:08;;;;;;;5.72;2.72;;;;;;;32.63;39.41;100916.18;1915182;75;21039;-66
2021/09/13 08:07:37;;;;;;;6.47;3.30;;;;;;;32.63;38.81;100914.29;1915142;75;21116;-66
2021/09/13 08:10:07;;;;;;;5.70;3.00;;;;;;;32.80;38.85;100909.86;1915034;75;21050;-66
2021/09/13 08:12:36;;;;;;;7.35;4.17;;;;;;;32.05;38.75;100911.75;1915226;75;21102;-66
2021/09/13 08:15:06;;;;;;;6.47;3.95;;;;;;;32.29;39.15;100905.02;1915168;75;21039;-67
2021/09/13 08:17:35;;;;;;;10.35;4.90;;;;;;;32.77;38.51;100906.17;1915448;75;21046;-66
2021/09/13 08:20:06;;;;;;;9.00;4.47;;;;;;;33.03;38.27;100904.91;1915075;74;21128;-66
2021/09/13 08:22:35;;;;;;;6.58;3.45;;;;;;;33.32;37.97;100911.13;1915140;75;21038;-66
2021/09/13 08:25:05;;;;;;;6.08;3.00;;;;;;;33.58;36.51;100913.59;1915325;75;21133;-66
2021/09/13 08:27:38;;;;;;;6.60;3.58;;;;;;;33.55;35.86;100912.63;1912208;75;21069;-66
2021/09/13 08:30:08;;;;;;;8.18;3.90;;;;;;;33.90;36.08;100902.92;1915351;75;21050;-66
2021/09/13 08:32:36;;;;;;;9.05;4.22;;;;;;;34.27;35.94;100901.98;1912554;75;21090;-66
2021/09/13 08:35:06;;;;;;;11.18;4.65;;;;;;;34.23;35.76;100891.50;1905567;75;21054;-67
2021/09/13 08:37:34;;;;;;;7.45;4.20;;;;;;;34.25;35.22;100893.99;1905772;75;21003;-66
2021/09/13 08:40:04;;;;;;;8.98;4.03;;;;;;;34.19;35.44;100886.12;1905641;75;21063;-66
2021/09/13 08:42:45;;;;;;;5.97;3.55;;;;;;;34.52;35.34;100889.31;1905702;75;21117;-67
2021/09/13 08:45:31;;;;;;;6.05;4.25;;;;;;;34.20;35.56;100884.25;1905606;75;21113;-65
2021/09/13 08:48:05;;;;;;;8.25;4.53;;;;;;;33.29;35.96;100886.97;1903781;75;21042;-65
2021/09/13 08:50:34;;;;;;;5.80;3.77;;;;;;;31.29;38.43;100876.86;1903457;75;21075;-66
2021/09/13 08:52:57;;;;;;;5.50;3.58;;;;;;;30.79;39.59;100880.75;1904812;75;21086;-66
2021/09/13 08:55:26;;;;;;;7.12;4.40;;;;;;;31.25;38.94;100877.46;1905608;75;21489;-66
2021/09/13 08:57:55;;;;;;;5.90;3.37;;;;;;;31.87;38.13;100879.55;1905585;75;21141;-67
2021/09/13 09:00:24;;;;;;;6.25;3.67;;;;;;;32.51;37.63;100870.35;1905727;75;21474;-67
2021/09/13 09:02:54;;;;;;;7.50;3.60;;;;;;;33.25;36.77;100872.89;1905590;75;21035;-66
2021/09/13 09:05:23;;;;;;;7.70;3.47;;;;;;;33.97;35.93;100868.26;1905598;75;21145;-66
2021/09/13 09:07:54;;;;;;;7.03;3.30;;;;;;;34.53;35.33;100863.67;1905722;75;21015;-66
2021/09/13 09:10:26;;;;;;;5.72;3.02;;;;;;;34.89;34.41;100860.91;1905740;75;21011;-66
2021/09/13 09:13:12;;;;;;;9.27;3.03;;;;;;;34.60;33.43;100861.75;1905922;75;21055;-66
2021/09/13 09:15:38;;;;;;;;;;;;;;;34.61;34.02;100864.78;1907897;75;21118;-66
2021/09/13 09:18:06;;;;;;;5.72;4.03;;;;;;;34.52;34.43;100857.87;1906248;75;20146;-66
2021/09/13 09:20:45;;;;;;;5.33;2.98;;;;;;;34.50;34.56;100851.78;1905687;75;21086;-66
2021/09/13 09:23:14;;;;;;;8.63;3.37;;;;;;;34.52;34.90;100853.77;1905606;75;21113;-66
2021/09/13 09:25:43;;;;;;;4.08;2.95;;;;;;;34.88;34.63;100857.87;1905608;75;21509;-66
2021/09/13 09:28:19;;;;;;;6.40;3.60;;;;;;;35.15;33.88;100856.35;1905573;75;21218;-66
2021/09/13 09:30:52;;;;;;;6.65;2.83;;;;;;;34.92;33.48;100856.38;1904555;75;21098;-67
2021/09/13 09:33:23;;;;;;;5.45;2.47;;;;;;;34.71;33.73;100848.48;1905423;75;21083;-67
2021/09/13 09:35:56;;;;;;;5.62;3.05;;;;;;;34.55;33.65;100851.98;1905756;75;21063;-66
2021/09/13 09:38:30;;;;;;;6.55;3.25;;;;;;;34.53;33.60;100847.27;1905559;75;21430;-66
2021/09/13 09:41:14;;;;;;;7.85;2.83;;;;;;;34.27;33.19;100850.92;1905548;75;21011;-67
2021/09/13 09:43:57;;;;;;;9.60;2.70;;;;;;;33.74;34.06;100853.69;1905660;75;21031;-67
2021/09/13 09:46:41;;;;;;;4.37;2.90;;;;;;;33.64;34.03;100854.05;1904701;75;21108;-67
2021/09/13 09:49:15;;;;;;;6.33;3.22;;;;;;;34.13;34.74;100850.06;1905562;75;21083;-67
2021/09/13 09:51:51;;;;;;;4.17;2.72;;;;;;;34.49;34.51;100850.13;1862593;76;21148;-67
2021/09/13 09:54:26;;;;;;;6.42;3.08;;;;;;;34.68;34.14;100849.76;1900734;75;21035;-67
2021/09/13 09:57:11;;;;;;;7.62;3.67;;;;;;;34.82;33.89;100847.79;1905617;75;21042;-67
2021/09/13 09:59:41;;;;;;;5.05;2.92;;;;;;;34.10;34.86;100851.84;1905539;75;21124;-67
2021/09/13 10:02:18;;;;;;;5.85;3.40;;;;;;;33.08;35.58;100850.59;1905657;75;21474;-67
2021/09/13 10:04:54;;;;;;;4.22;2.87;;;;;;;32.63;36.76;100848.87;1905486;75;21011;-67
2021/09/13 10:07:23;;;;;;;6.85;2.83;;;;;;;32.02;37.07;100846.78;1905556;75;21571;-67
2021/09/13 10:09:53;;;;;;;5.35;2.80;;;;;;;32.37;37.22;100845.46;1905511;75;21063;-67
2021/09/13 10:12:23;;;;;;;5.22;2.92;;;;;;;33.00;36.40;100846.70;1905499;75;21042;-66
2021/09/13 10:14:54;;;;;;;5.17;3.40;;;;;;;33.28;35.53;100841.65;1905711;75;21039;-66
2021/09/13 10:17:22;;;;;;;9.48;3.10;;;;;;;32.97;36.11;100841.64;1905477;75;21104;-66
2021/09/13 10:19:52;;;;;;;5.78;3.62;;;;;;;33.18;36.32;100837.10;1905694;75;21521;-66
2021/09/13 10:22:20;;;;;;;6.97;3.15;;;;;;;33.61;36.10;100836.75;1905728;75;21063;-66
2021/09/13 10:24:50;;;;;;;6.35;2.75;;;;;;;34.00;35.62;100833.70;1905918;75;21104;-66
2021/09/13 10:27:20;;;;;;;4.55;2.62;;;;;;;33.83;34.64;100836.87;1905798;75;21152;-66
2021/09/13 10:29:50;;;;;;;6.87;3.05;;;;;;;33.51;35.34;100845.86;1905613;75;21144;-67
2021/09/13 10:32:22;;;;;;;4.45;2.35;;;;;;;33.34;35.05;100844.06;1836862;76;21130;-66
2021/09/13 10:34:52;;;;;;;3.60;2.27;;;;;;;33.30;34.33;100837.35;1910747;75;21160;-66
2021/09/13 10:37:26;;;;;;;4.08;2.37;;;;;;;33.27;33.97;100839.95;1915259;75;21014;-66
2021/09/13 10:40:03;;;;;;;7.33;2.75;;;;;;;33.27;34.49;100835.86;1915117;75;21011;-66
2021/09/13 10:42:38;;;;;;;7.17;2.87;;;;;;;33.39;34.48;100839.66;1914745;75;21531;-66
2021/09/13 10:45:16;;;;;;;5.83;3.10;;;;;;;33.45;34.75;100832.00;1864086;76;21127;-66
2021/09/13 10:47:47;;;;;;;5.62;2.40;;;;;;;33.56;34.75;100840.63;1915412;75;21567;-66
2021/09/13 10:50:37;;;;;;;5.73;2.90;;;;;;;32.91;35.38;100832.92;1915457;75;21067;-66
2021/09/13 10:53:21;;;;;;;7.42;2.55;;;;;;;32.05;36.87;100831.41;1915166;75;21199;-66
2021/09/13 10:55:55;;;;;;;6.25;2.75;;;;;;;31.42;37.16;100833.99;1914975;75;21043;-66
2021/09/13 10:58:46;;;;;;;7.65;2.72;;;;;;;30.78;37.75;100831.52;1915189;75;21104;-66
2021/09/13 11:01:28;;;;;;;5.30;3.12;;;;;;;30.18;38.33;100829.84;1915088;75;21120;-66
2021/09/13 11:04:05;;;;;;;7.75;2.72;;;;;;;30.07;39.05;100827.06;1915343;75;21066;-66
2021/09/13 11:06:43;;;;;;;6.17;2.83;;;;;;;30.28;39.08;100826.31;1915228;75;21524;-66
2021/09/13 11:09:18;;;;;;;4.25;2.55;;;;;;;30.50;39.72;100821.01;1915195;75;21035;-66
2021/09/13 11:11:56;;;;;;;5.22;2.77;;;;;;;30.68;39.01;100820.09;1915174;75;21128;-67
2021/09/13 11:14:26;;;;;;;4.30;2.80;;;;;;;30.77;38.70;100817.59;1915169;75;21042;-67
2021/09/13 11:17:01;;;;;;;6.37;2.77;;;;;;;30.77;39.06;100813.52;1915173;75;21104;-66
2021/09/13 11:19:32;;;;;;;5.28;2.83;;;;;;;30.76;38.62;100817.25;1915161;75;21096;-66
2021/09/13 11:22:05;;;;;;;5.45;2.92;;;;;;;30.74;38.25;100807.09;1915212;75;21062;-66
2021/09/13 11:24:37;;;;;;;6.15;2.75;;;;;;;30.64;38.52;100807.92;1915315;75;21078;-66
2021/09/13 11:27:12;;;;;;;10.55;2.85;;;;;;;30.47;39.27;100796.92;1915343;75;21100;-66
2021/09/13 11:29:46;;;;;;;4.67;2.60;;;;;;;30.31;39.72;100796.59;1915139;75;21007;-66
2021/09/13 11:32:17;;;;;;;3.87;2.58;;;;;;;29.88;39.48;100794.53;1915308;75;21100;-66
2021/09/13 11:34:56;;;;;;;3.35;2.02;;;;;;;29.50;40.28;100792.31;1912483;75;21237;-66
2021/09/13 11:37:30;;;;;;;5.85;2.83;;;;;;;29.26;40.39;100792.31;1863947;76;21503;-66